createdAt,value
2018-09-09T00:01:03.177Z,97923.29
2018-09-09T00:03:32.803Z,97923.45
2018-09-09T00:06:02.032Z,97926.06
2018-09-09T00:08:31.190Z,97914.14
2018-09-09T00:11:00.229Z,97928.05
2018-09-09T00:13:30.244Z,97920.47
2018-09-09T00:15:59.462Z,97920.19
2018-09-09T00:18:28.592Z,97918.02
2018-09-09T00:20:57.968Z,97921.59
2018-09-09T00:23:27.177Z,97917.51
2018-09-09T00:25:56.963Z,97921.28
2018-09-09T00:28:31.334Z,97919.41
2018-09-09T00:31:08.823Z,97923.55
2018-09-09T00:33:38.070Z,97916.23
2018-09-09T00:36:07.210Z,97922.78
2018-09-09T00:38:36.314Z,97922.81
2018-09-09T00:41:05.401Z,97918.44
2018-09-09T00:43:34.430Z,97925.27
2018-09-09T00:46:04.248Z,97920.89
2018-09-09T00:48:33.812Z,97921.70
2018-09-09T00:51:07.802Z,97923.64
2018-09-09T00:53:43.676Z,97925.80
2018-09-09T00:56:12.861Z,97932.60
2018-09-09T00:58:42.515Z,97933.39
2018-09-09T01:01:16.028Z,97936.09
2018-09-09T01:03:46.317Z,97932.31
2018-09-09T01:06:15.722Z,97931.22
2018-09-09T01:08:45.245Z,97936.13
2018-09-09T01:11:14.975Z,97935.28
2018-09-09T01:13:44.177Z,97934.22
2018-09-09T01:16:13.440Z,97932.86
2018-09-09T01:18:42.600Z,97934.50
2018-09-09T01:21:11.856Z,97935.31
2018-09-09T01:26:56.188Z,97933.98
2018-09-09T01:29:25.608Z,97930.70
2018-09-09T01:31:54.569Z,97931.25
2018-09-09T01:37:16.687Z,97939.39
2018-09-09T01:39:45.639Z,97938.57
2018-09-09T01:42:14.582Z,97939.91
2018-09-09T01:44:43.914Z,97931.19
2018-09-09T01:47:13.221Z,97939.30
2018-09-09T01:49:42.210Z,97940.34
2018-09-09T01:52:11.343Z,97941.69
2018-09-09T01:54:40.580Z,97939.27
2018-09-09T01:57:09.575Z,97938.98
2018-09-09T01:59:38.664Z,97939.53
2018-09-09T02:02:07.775Z,97940.62
2018-09-09T02:04:37.065Z,97943.62
2018-09-09T02:07:49.335Z,97938.51
2018-09-09T02:24:07.686Z,97929.33
2018-09-09T02:26:36.721Z,97929.07
2018-09-09T02:29:06.244Z,97932.06
2018-09-09T02:31:35.267Z,97931.52
2018-09-09T02:34:05.432Z,97934.51
2018-09-09T02:36:34.336Z,97929.90
2018-09-09T02:39:03.569Z,97927.73
2018-09-09T02:41:32.520Z,97924.45
2018-09-09T02:44:01.535Z,97927.44
2018-09-09T02:46:30.684Z,97931.23
2018-09-09T02:48:59.776Z,97935.59
2018-09-09T02:51:28.767Z,97934.77
2018-09-09T02:53:58.046Z,97940.77
2018-09-09T02:56:27.260Z,97942.68
2018-09-09T02:58:56.515Z,97947.01
2018-09-09T03:01:26.483Z,97946.48
2018-09-09T03:03:55.739Z,97945.38
2018-09-09T03:06:25.456Z,97941.03
2018-09-09T03:08:54.484Z,97942.67
2018-09-09T03:11:24.463Z,97944.59
2018-09-09T03:13:53.430Z,97948.63
2018-09-09T03:16:22.813Z,97943.21
2018-09-09T03:32:29.031Z,97946.45
2018-09-09T03:34:57.962Z,97942.66
2018-09-09T03:37:26.903Z,97940.74
2018-09-09T03:39:56.013Z,97945.35
2018-09-09T03:42:25.440Z,97939.36
2018-09-09T03:44:54.398Z,97934.73
2018-09-09T03:47:24.627Z,97937.73
2018-09-09T03:49:53.798Z,97933.66
2018-09-09T03:52:23.681Z,97933.09
2018-09-09T03:54:53.632Z,97927.06
2018-09-09T03:57:23.063Z,97922.70
2018-09-09T03:59:52.195Z,97925.69
2018-09-09T04:02:21.294Z,97926.24
2018-09-09T04:04:51.898Z,97924.89
2018-09-09T04:07:20.814Z,97928.13
2018-09-09T04:09:49.827Z,97929.78
2018-09-09T04:12:19.502Z,97930.36
2018-09-09T04:14:48.567Z,97925.17
2018-09-09T04:17:17.504Z,97929.22
2018-09-09T04:19:46.471Z,97929.49
2018-09-09T04:22:15.454Z,97929.47
2018-09-09T04:24:44.396Z,97927.25
2018-09-09T04:27:13.310Z,97931.56
2018-09-09T04:29:42.728Z,97925.81
2018-09-09T04:32:12.059Z,97936.13
2018-09-09T04:34:41.116Z,97936.66
2018-09-09T04:37:09.993Z,97934.45
2018-09-09T04:39:40.096Z,97935.55
2018-09-09T04:42:09.085Z,97931.19
2018-09-09T04:44:38.126Z,97936.33
2018-09-09T04:47:07.137Z,97944.73
2018-09-09T04:49:36.094Z,97943.37
2018-09-09T04:52:05.336Z,97952.02
2018-09-09T04:54:34.882Z,97951.48
2018-09-09T04:57:03.831Z,97952.88
2018-09-09T04:59:32.767Z,97957.02
2018-09-09T05:02:01.779Z,97964.94
2018-09-09T05:04:31.088Z,97958.48
2018-09-09T05:07:00.096Z,97963.44
2018-09-09T05:09:29.062Z,97969.53
2018-09-09T05:11:58.005Z,97961.69
2018-09-09T05:14:26.967Z,97964.98
2018-09-09T05:16:55.876Z,97968.25
2018-09-09T05:19:26.024Z,97948.63
2018-09-09T05:21:55.209Z,97966.54
2018-09-09T05:24:24.431Z,97968.63
2018-09-09T05:26:53.337Z,97963.88
2018-09-09T05:29:22.299Z,97965.30
2018-09-09T05:31:51.255Z,97972.47
2018-09-09T05:34:23.244Z,97967.89
2018-09-09T05:36:52.237Z,97967.31
2018-09-09T05:39:21.118Z,97966.84
2018-09-09T05:41:52.258Z,97969.30
2018-09-09T05:44:21.370Z,97965.63
2018-09-09T05:46:50.337Z,97964.22
2018-09-09T05:49:19.411Z,97968.35
2018-09-09T05:51:48.304Z,97975.56
2018-09-09T05:54:17.299Z,97972.18
2018-09-09T05:56:47.387Z,97982.60
2018-09-09T05:59:16.625Z,97988.84
2018-09-09T06:01:45.928Z,97983.80
2018-09-09T06:04:15.329Z,97992.49
2018-09-09T06:06:45.102Z,97990.10
2018-09-09T06:09:14.148Z,97994.41
2018-09-09T06:11:43.291Z,97993.27
2018-09-09T06:14:12.357Z,97993.89
2018-09-09T06:16:41.876Z,98000.31
2018-09-09T06:19:11.078Z,98002.56
2018-09-09T06:21:40.380Z,97997.81
2018-09-09T06:24:09.566Z,97995.16
2018-09-09T06:26:38.589Z,97993.09
2018-09-09T06:29:07.693Z,97990.30
2018-09-09T06:31:36.905Z,97990.61
2018-09-09T06:34:06.124Z,97991.33
2018-09-09T06:36:35.078Z,97985.59
2018-09-09T06:39:05.480Z,97985.61
2018-09-09T06:41:34.412Z,97982.95
2018-09-09T06:44:03.382Z,97989.61
2018-09-09T06:46:32.288Z,97991.39
2018-09-09T06:49:01.811Z,97996.36
2018-09-09T06:51:30.698Z,97996.42
2018-09-09T06:53:59.635Z,97999.60
2018-09-09T06:56:28.626Z,97996.92
2018-09-09T06:58:58.130Z,97991.72
2018-09-09T07:01:27.064Z,97998.06
2018-09-09T07:03:56.059Z,98004.91
2018-09-09T07:06:25.917Z,98004.70
2018-09-09T07:08:54.899Z,98004.14
2018-09-09T07:11:24.296Z,98008.17
2018-09-09T07:13:53.390Z,98014.33
2018-09-09T07:16:22.397Z,98016.55
2018-09-09T07:18:51.689Z,98015.12
2018-09-09T07:21:20.746Z,98013.38
2018-09-09T07:23:49.891Z,98013.17
2018-09-09T07:26:18.981Z,98016.76
2018-09-09T07:28:47.886Z,98021.47
2018-09-09T07:31:16.932Z,98025.83
2018-09-09T07:33:45.811Z,98019.56
2018-09-09T07:36:14.815Z,98024.26
2018-09-09T07:38:43.771Z,98023.39
2018-09-09T07:41:12.799Z,98021.38
2018-09-09T07:43:41.800Z,98022.25
2018-09-09T07:46:10.758Z,98024.84
2018-09-09T07:48:40.700Z,98025.51
2018-09-09T07:51:09.576Z,98029.92
2018-09-09T07:53:38.474Z,98031.53
2018-09-09T07:56:07.606Z,98027.23
2018-09-09T07:58:36.624Z,98034.75
2018-09-09T08:01:05.688Z,98037.30
2018-09-09T08:03:35.087Z,98035.09
2018-09-09T08:06:03.991Z,98042.59
2018-09-09T08:08:32.893Z,98039.84
2018-09-09T08:11:02.640Z,98039.95
2018-09-09T08:13:31.571Z,98034.87
2018-09-09T08:16:00.501Z,98039.38
2018-09-09T08:18:29.547Z,98042.00
2018-09-09T08:20:59.400Z,98043.84
2018-09-09T08:23:28.355Z,98045.53
2018-09-09T08:25:57.327Z,98040.56
2018-09-09T08:28:26.937Z,98042.94
2018-09-09T08:30:56.121Z,98043.56
2018-09-09T08:33:25.442Z,98049.55
2018-09-09T08:35:54.346Z,98029.45
2018-09-09T08:38:23.708Z,98036.05
2018-09-09T08:40:52.724Z,98039.06
2018-09-09T08:43:21.650Z,98045.67
2018-09-09T08:45:50.549Z,98044.27
2018-09-09T08:48:19.609Z,98040.98
2018-09-09T08:50:48.584Z,98040.23
2018-09-09T08:53:17.464Z,98033.84
2018-09-09T08:55:46.544Z,98035.34
2018-09-09T08:58:15.430Z,98028.44
2018-09-09T09:00:44.434Z,98033.95
2018-09-09T09:03:13.427Z,98036.94
2018-09-09T09:05:42.364Z,98040.55
2018-09-09T09:08:11.972Z,98038.69
2018-09-09T09:20:49.579Z,98032.69
2018-09-09T09:23:18.547Z,98029.20
2018-09-09T09:25:51.400Z,98034.59
2018-09-09T09:28:21.538Z,98031.99
2018-09-09T09:30:50.933Z,98028.88
2018-09-09T09:33:19.890Z,98034.46
2018-09-09T09:35:50.092Z,98027.59
2018-09-09T09:38:20.538Z,98030.39
2018-09-09T09:40:51.058Z,98032.42
2018-09-09T09:43:19.959Z,98021.45
2018-09-09T09:45:49.154Z,98021.42
2018-09-09T09:48:18.226Z,98019.02
2018-09-09T09:50:47.215Z,98018.38
2018-09-09T09:53:16.785Z,98012.83
2018-09-09T09:55:46.364Z,98009.96
2018-09-09T09:58:16.648Z,98017.55
2018-09-09T10:00:50.521Z,98009.88
2018-09-09T10:03:20.122Z,98010.84
2018-09-09T10:05:49.052Z,98006.53
2018-09-09T10:08:18.395Z,98007.39
2018-09-09T10:10:47.832Z,98010.97
2018-09-09T10:13:19.717Z,98008.78
2018-09-09T10:15:48.667Z,98012.34
2018-09-09T10:18:20.144Z,98001.46
2018-09-09T10:20:49.706Z,97992.15
2018-09-09T10:23:18.823Z,97992.16
2018-09-09T10:25:47.828Z,97990.00
2018-09-09T10:28:16.836Z,97992.45
2018-09-09T10:30:45.715Z,97990.80
2018-09-09T10:33:14.654Z,97979.94
2018-09-09T10:35:43.625Z,97985.38
2018-09-09T10:38:12.798Z,97978.40
2018-09-09T10:40:41.746Z,97981.70
2018-09-09T10:43:10.748Z,97981.89
2018-09-09T10:45:39.696Z,97985.17
2018-09-09T10:48:08.667Z,97979.53
2018-09-09T10:50:37.775Z,97977.20
2018-09-09T10:53:06.830Z,97970.64
2018-09-09T10:55:35.943Z,97962.44
2018-09-09T10:58:04.865Z,97961.27
2018-09-09T11:00:34.931Z,97957.59
2018-09-09T11:03:03.906Z,97958.07
2018-09-09T11:05:32.918Z,97956.09
2018-09-09T11:08:01.876Z,97949.67
2018-09-09T11:10:31.200Z,97937.98
2018-09-09T11:13:00.336Z,97936.44
2018-09-09T11:15:29.193Z,97938.47
2018-09-09T11:17:58.080Z,97939.30
2018-09-09T11:20:27.071Z,97935.73
2018-09-09T11:22:56.582Z,97937.38
2018-09-09T11:25:26.547Z,97937.41
2018-09-09T11:27:55.602Z,97936.47
2018-09-09T11:30:25.887Z,97944.20
2018-09-09T11:32:54.820Z,97936.47
2018-09-09T11:35:24.131Z,97949.97
2018-09-09T11:37:53.444Z,97946.52
2018-09-09T11:40:25.334Z,97946.19
2018-09-09T11:42:54.320Z,97952.25
2018-09-09T11:45:27.028Z,97939.33
2018-09-09T11:47:56.024Z,97943.87
2018-09-09T11:50:25.612Z,97950.58
2018-09-09T11:52:54.549Z,97941.16
2018-09-09T11:55:27.234Z,97941.78
2018-09-09T11:57:56.850Z,97938.69
2018-09-09T12:00:26.816Z,97929.13
2018-09-09T12:02:55.811Z,97934.31
2018-09-09T12:05:25.412Z,97932.05
2018-09-09T12:07:54.326Z,97932.56
2018-09-09T12:10:25.794Z,97927.46
2018-09-09T12:12:55.423Z,97935.75
2018-09-09T12:15:24.716Z,97934.67
2018-09-09T12:17:53.632Z,97931.05
2018-09-09T12:20:23.463Z,97924.64
2018-09-09T12:22:52.561Z,97923.25
2018-09-09T12:25:21.517Z,97921.61
2018-09-09T12:27:50.511Z,97914.52
2018-09-09T12:30:20.492Z,97913.74
2018-09-09T12:32:49.742Z,97911.62
2018-09-09T12:35:22.343Z,97905.50
2018-09-09T12:37:51.382Z,97905.37
2018-09-09T12:40:27.379Z,97902.33
2018-09-09T12:43:01.633Z,97907.56
2018-09-09T12:45:35.617Z,97903.11
2018-09-09T12:48:09.679Z,97903.58
2018-09-09T12:50:39.623Z,97893.50
2018-09-09T12:53:08.533Z,97902.84
2018-09-09T12:55:38.330Z,97896.92
2018-09-09T13:00:59.362Z,97899.63
2018-09-09T13:03:28.309Z,97903.92
2018-09-09T13:05:57.244Z,97902.94
2018-09-09T13:08:26.203Z,97897.28
2018-09-09T13:10:55.181Z,97898.88
2018-09-09T13:13:25.448Z,97896.61
2018-09-09T13:15:54.479Z,97889.55
2018-09-09T13:18:23.626Z,97884.83
2018-09-09T13:20:52.542Z,97885.59
2018-09-09T13:23:22.148Z,97888.19
2018-09-09T13:25:51.779Z,97891.05
2018-09-09T13:28:21.047Z,97891.66
2018-09-09T13:30:50.082Z,97893.55
2018-09-09T13:33:19.316Z,97884.29
2018-09-09T13:35:48.321Z,97888.23
2018-09-09T13:38:17.242Z,97892.73
2018-09-09T13:40:46.322Z,97890.66
2018-09-09T13:43:15.321Z,97894.11
2018-09-09T13:45:44.374Z,97887.64
2018-09-09T13:48:13.411Z,97895.14
2018-09-09T13:50:42.494Z,97882.09
2018-09-09T13:53:11.612Z,97890.77
2018-09-09T13:55:40.635Z,97890.73
2018-09-09T13:58:09.604Z,97887.23
2018-09-09T14:00:38.690Z,97885.49
2018-09-09T14:03:08.378Z,97881.87
2018-09-09T14:05:37.355Z,97880.94
2018-09-09T14:08:06.349Z,97881.05
2018-09-09T14:10:35.252Z,97888.25
2018-09-09T14:13:04.225Z,97883.89
2018-09-09T14:15:33.241Z,97882.89
2018-09-09T14:18:02.559Z,97882.68
2018-09-09T14:20:31.438Z,97878.16
2018-09-09T14:23:00.322Z,97878.91
2018-09-09T14:25:29.504Z,97875.65
2018-09-09T14:27:58.583Z,97881.13
2018-09-09T14:30:27.527Z,97877.23
2018-09-09T14:32:56.449Z,97878.09
2018-09-09T14:35:25.699Z,97878.73
2018-09-09T14:37:54.753Z,97878.25
2018-09-09T14:40:27.085Z,97880.05
2018-09-09T14:42:56.037Z,97885.53
2018-09-09T14:45:25.083Z,97883.09
2018-09-09T14:47:54.050Z,97882.81
2018-09-09T14:50:25.253Z,97885.48
2018-09-09T14:52:54.227Z,97880.29
2018-09-09T14:55:24.236Z,97883.98
2018-09-09T14:57:53.218Z,97877.20
2018-09-09T15:00:22.702Z,97884.69
2018-09-09T15:02:51.737Z,97880.20
2018-09-09T15:05:22.101Z,97882.87
2018-09-09T15:07:51.540Z,97881.02
2018-09-09T15:10:23.243Z,97879.16
2018-09-09T15:12:52.159Z,97874.31
2018-09-09T15:15:23.872Z,97872.84
2018-09-09T15:17:52.795Z,97877.91
2018-09-09T15:20:22.064Z,97875.59
2018-09-09T15:22:51.030Z,97869.95
2018-09-09T15:25:21.352Z,97866.14
2018-09-09T15:27:50.281Z,97875.45
2018-09-09T15:30:19.261Z,97871.06
2018-09-09T15:32:48.125Z,97874.73
2018-09-09T15:35:17.082Z,97877.06
2018-09-09T15:37:46.096Z,97868.34
2018-09-09T15:40:15.477Z,97867.42
2018-09-09T15:42:44.456Z,97854.58
2018-09-09T15:45:13.495Z,97862.17
2018-09-09T15:47:42.508Z,97861.24
2018-09-09T15:50:11.474Z,97864.80
2018-09-09T15:52:40.430Z,97868.45
2018-09-09T15:55:09.452Z,97860.13
2018-09-09T15:57:38.386Z,97863.83
2018-09-09T16:00:07.504Z,97859.91
2018-09-09T16:02:36.425Z,97862.23
2018-09-09T16:05:05.780Z,97867.91
2018-09-09T16:07:34.704Z,97859.73
2018-09-09T16:10:03.664Z,97853.19
2018-09-09T16:12:32.564Z,97850.77
2018-09-09T16:15:01.567Z,97854.67
2018-09-09T16:17:30.507Z,97859.39
2018-09-09T16:19:59.388Z,97862.75
2018-09-09T16:22:28.371Z,97855.11
2018-09-09T16:24:57.277Z,97857.63
2018-09-09T16:27:26.422Z,97864.99
2018-09-09T16:29:55.410Z,97870.84
2018-09-09T16:32:24.290Z,97867.73
2018-09-09T16:34:53.163Z,97873.26
2018-09-09T16:37:23.686Z,97865.56
2018-09-09T16:39:53.353Z,97871.22
2018-09-09T16:42:22.656Z,97871.18
2018-09-09T16:44:51.628Z,97867.66
2018-09-09T16:47:21.099Z,97866.40
2018-09-09T16:49:50.555Z,97865.11
2018-09-09T16:52:19.482Z,97860.96
2018-09-09T16:54:48.453Z,97857.84
2018-09-09T16:57:17.483Z,97854.52
2018-09-09T16:59:46.480Z,97858.66
2018-09-09T17:02:15.448Z,97861.48
2018-09-09T17:04:44.381Z,97861.08
2018-09-09T17:07:13.391Z,97861.77
2018-09-09T17:09:42.396Z,97856.30
2018-09-09T17:12:11.302Z,97856.41
2018-09-09T17:14:40.377Z,97856.66
2018-09-09T17:17:09.439Z,97855.23
2018-09-09T17:19:38.437Z,97849.46
2018-09-09T17:22:07.424Z,97855.12
2018-09-09T17:24:37.267Z,97855.05
2018-09-09T17:27:06.337Z,97854.70
2018-09-09T17:29:35.392Z,97855.22
2018-09-09T17:32:07.397Z,97856.47
2018-09-09T17:34:36.355Z,97859.11
2018-09-09T17:37:05.387Z,97853.23
2018-09-09T17:39:34.306Z,97852.59
2018-09-09T17:42:03.437Z,97862.41
2018-09-09T17:44:32.526Z,97864.18
2018-09-09T17:47:01.461Z,97865.90
2018-09-09T17:49:31.487Z,97859.41
2018-09-09T17:52:00.416Z,97865.86
2018-09-09T17:54:30.063Z,97871.30
2018-09-09T17:56:59.926Z,97875.53
2018-09-09T17:59:31.597Z,97882.02
2018-09-09T18:02:01.679Z,97881.91
2018-09-09T18:04:30.661Z,97889.19
2018-09-09T18:06:59.572Z,97893.56
2018-09-09T18:09:28.587Z,97892.23
2018-09-09T18:11:57.879Z,97895.11
2018-09-09T18:14:26.839Z,97897.34
2018-09-09T18:16:55.867Z,97907.63
2018-09-09T18:19:25.016Z,97905.30
2018-09-09T18:21:54.164Z,97910.31
2018-09-09T18:24:23.608Z,97910.59
2018-09-09T18:26:53.476Z,97910.16
2018-09-09T18:29:42.154Z,97917.22
2018-09-09T18:32:11.332Z,97912.95
2018-09-09T18:34:41.152Z,97910.64
2018-09-09T18:37:10.724Z,97907.80
2018-09-09T18:39:39.749Z,97906.70
2018-09-09T18:42:09.045Z,97905.21
2018-09-09T18:44:38.167Z,97913.80
2018-09-09T18:47:07.144Z,97913.05
2018-09-09T18:49:36.098Z,97922.66
2018-09-09T18:52:05.159Z,97919.14
2018-09-09T18:54:34.163Z,97913.34
2018-09-09T18:57:03.610Z,97923.34
2018-09-09T18:59:34.064Z,97921.22
2018-09-09T19:02:03.802Z,97918.55
2018-09-09T19:04:32.798Z,97918.27
2018-09-09T19:07:02.297Z,97925.21
2018-09-09T19:09:31.203Z,97926.30
2018-09-09T19:12:00.293Z,97920.61
2018-09-09T19:14:29.423Z,97922.73
2018-09-09T19:16:58.408Z,97920.30
2018-09-09T19:19:27.391Z,97922.19
2018-09-09T19:21:57.180Z,97920.42
2018-09-09T19:24:26.079Z,97923.14
2018-09-09T19:26:55.017Z,97923.00
2018-09-09T19:29:34.665Z,97915.19
2018-09-09T19:32:04.640Z,97934.81
2018-09-09T19:34:33.803Z,97933.05
2018-09-09T19:37:02.857Z,97935.98
2018-09-09T19:39:31.881Z,97938.31
2018-09-09T19:42:01.037Z,97934.17
2018-09-09T19:44:30.113Z,97931.95
2018-09-09T19:46:59.261Z,97934.66
2018-09-09T19:49:28.348Z,97935.42
2018-09-09T19:51:57.445Z,97946.10
2018-09-09T19:54:27.360Z,97948.48
2018-09-09T19:56:56.537Z,97948.97
2018-09-09T19:59:25.641Z,97948.78
2018-09-09T20:02:33.090Z,97959.45
2018-09-09T20:05:12.846Z,97964.40
2018-09-09T20:07:42.855Z,97971.77
2018-09-09T20:10:12.702Z,97984.20
2018-09-09T20:12:42.146Z,97982.72
2018-09-09T20:15:12.315Z,97992.38
2018-09-09T20:17:41.711Z,97996.53
2018-09-09T20:20:10.819Z,97995.62
2018-09-09T20:22:39.819Z,97992.58
2018-09-09T20:25:09.276Z,97991.91
2018-09-09T20:27:38.329Z,97988.57
2018-09-09T20:30:07.749Z,97991.47
2018-09-09T20:32:36.799Z,97988.39
2018-09-09T20:35:05.883Z,97983.70
2018-09-09T20:37:40.025Z,97989.91
2018-09-09T20:40:09.120Z,97987.55
2018-09-09T20:42:38.193Z,97984.19
2018-09-09T20:45:07.273Z,97989.78
2018-09-09T20:47:36.358Z,97984.10
2018-09-09T20:50:05.532Z,97988.45
2018-09-09T20:52:35.529Z,97990.05
2018-09-09T20:55:04.618Z,97988.19
2018-09-09T21:00:22.053Z,97987.38
2018-09-09T21:02:51.665Z,97991.90
2018-09-09T21:05:21.456Z,97994.32
2018-09-09T21:07:51.357Z,97992.66
2018-09-09T21:10:20.802Z,97990.67
2018-09-09T21:12:49.835Z,97995.09
2018-09-09T21:15:18.960Z,97994.19
2018-09-09T21:17:48.036Z,97999.62
2018-09-09T21:20:17.159Z,97998.23
2018-09-09T21:22:46.371Z,97998.44
2018-09-09T21:25:15.472Z,97999.94
2018-09-09T21:27:45.648Z,97995.71
2018-09-09T21:30:14.877Z,97996.30
2018-09-09T21:32:43.924Z,97985.47
2018-09-09T21:35:13.062Z,97988.26
2018-09-09T21:37:43.228Z,97984.80
2018-09-09T21:40:12.350Z,97986.64
2018-09-09T21:42:41.585Z,97989.91
2018-09-09T21:45:10.960Z,97985.34
2018-09-09T21:47:40.196Z,97981.77
2018-09-09T21:50:11.459Z,97980.16
2018-09-09T21:52:41.374Z,97978.64
2018-09-09T21:55:10.717Z,97979.08
2018-09-09T21:57:39.905Z,97980.16
2018-09-09T22:00:10.973Z,97982.20
2018-09-09T22:02:41.564Z,97979.19
2018-09-09T22:05:10.902Z,97983.27
2018-09-09T22:07:52.477Z,97960.66
2018-09-09T22:10:29.832Z,97984.25
2018-09-09T22:12:59.061Z,97982.70
2018-09-09T22:15:28.440Z,97988.19
2018-09-09T22:17:57.848Z,97988.76
2018-09-09T22:20:29.909Z,97994.97
2018-09-09T22:22:58.936Z,97995.02
2018-09-09T22:25:28.033Z,97998.87
2018-09-09T22:27:57.183Z,97993.90
2018-09-09T22:30:26.287Z,97998.23
2018-09-09T22:32:55.473Z,97993.98
2018-09-09T22:35:28.884Z,97998.56
2018-09-09T22:37:59.113Z,98004.14
2018-09-09T22:40:28.423Z,97982.80
2018-09-09T22:42:57.645Z,97994.50
2018-09-09T22:45:29.804Z,97998.64
2018-09-09T22:47:59.451Z,97994.30
2018-09-09T22:50:31.458Z,98000.69
2018-09-09T22:53:00.719Z,97996.94
2018-09-09T22:55:29.903Z,97996.19
2018-09-09T22:57:59.094Z,97995.73
2018-09-09T23:00:28.487Z,97994.45
2018-09-09T23:02:57.895Z,97990.48
2018-09-09T23:05:29.314Z,97986.20
2018-09-09T23:07:58.433Z,97990.29
2018-09-09T23:10:30.311Z,97982.42
2018-09-09T23:12:59.454Z,97993.35
2018-09-09T23:15:30.806Z,97992.27
2018-09-09T23:17:59.862Z,97993.36
2018-09-09T23:20:29.101Z,97994.16
2018-09-09T23:22:58.296Z,97985.63
2018-09-09T23:25:27.678Z,97998.70
2018-09-09T23:27:57.269Z,97993.22
2018-09-09T23:30:26.456Z,97994.77
2018-09-09T23:32:55.628Z,97990.99
2018-09-09T23:35:25.005Z,97990.23
2018-09-09T23:37:54.249Z,97986.65
2018-09-09T23:40:26.155Z,97988.23
2018-09-09T23:42:55.262Z,97978.66
2018-09-09T23:45:25.297Z,97985.80
2018-09-09T23:47:54.598Z,97984.21
2018-09-09T23:50:25.011Z,97983.35
2018-09-09T23:52:54.150Z,97986.65
2018-09-09T23:55:29.246Z,97983.09
2018-09-09T23:57:58.743Z,97979.92
